createdAt,value
2022-09-25T00:01:21.347Z,10.33
2022-09-25T00:03:51.120Z,10.33
2022-09-25T00:06:21.102Z,10.29
2022-09-25T00:08:50.044Z,10.22
2022-09-25T00:11:20.018Z,10.14
2022-09-25T00:13:48.481Z,10.09
2022-09-25T00:16:18.356Z,9.98
2022-09-25T00:19:04.321Z,10.00
2022-09-25T00:21:35.257Z,9.93
2022-09-25T00:24:06.144Z,9.89
2022-09-25T00:26:36.600Z,9.90
2022-09-25T00:29:05.665Z,9.95
2022-09-25T00:31:34.084Z,9.91
2022-09-25T00:34:03.903Z,10.00
2022-09-25T00:36:34.045Z,9.97
2022-09-25T00:39:02.326Z,9.92
2022-09-25T00:41:31.976Z,9.85
2022-09-25T00:44:02.243Z,9.79
2022-09-25T00:46:33.002Z,9.74
2022-09-25T00:49:04.115Z,9.69
2022-09-25T00:51:38.915Z,9.70
2022-09-25T00:54:09.555Z,9.71
2022-09-25T00:56:40.809Z,9.65
2022-09-25T00:59:12.382Z,9.63
2022-09-25T01:01:40.342Z,9.66
2022-09-25T01:04:08.738Z,9.65
2022-09-25T01:06:38.214Z,9.66
2022-09-25T01:09:06.554Z,9.68
2022-09-25T01:11:34.573Z,9.76
2022-09-25T01:14:07.022Z,9.84
2022-09-25T01:16:39.839Z,9.85
2022-09-25T01:19:20.718Z,9.92
2022-09-25T01:21:54.029Z,9.92
2022-09-25T01:24:43.872Z,9.87
2022-09-25T01:27:34.535Z,9.88
2022-09-25T01:30:07.883Z,9.98
2022-09-25T01:32:45.761Z,9.98
2022-09-25T01:35:20.602Z,10.00
2022-09-25T01:37:56.124Z,9.95
2022-09-25T01:40:33.538Z,9.87
2022-09-25T01:43:10.413Z,9.72
2022-09-25T01:45:43.981Z,9.62
2022-09-25T01:48:16.874Z,9.64
2022-09-25T01:50:50.792Z,9.68
2022-09-25T01:53:23.911Z,9.71
2022-09-25T01:55:56.167Z,9.74
2022-09-25T01:58:28.996Z,9.79
2022-09-25T02:01:04.990Z,9.74
2022-09-25T02:03:39.726Z,9.64
2022-09-25T02:06:16.113Z,9.64
2022-09-25T02:08:48.024Z,9.61
2022-09-25T02:11:15.820Z,9.63
2022-09-25T02:13:49.505Z,9.70
2022-09-25T02:16:23.990Z,9.70
2022-09-25T02:19:09.469Z,9.74
2022-09-25T02:21:46.747Z,9.68
2022-09-25T02:24:21.486Z,9.73
2022-09-25T02:26:50.935Z,9.70
2022-09-25T02:29:19.720Z,9.54
2022-09-25T02:31:53.556Z,9.48
2022-09-25T02:34:24.919Z,9.57
2022-09-25T02:36:52.782Z,9.57
2022-09-25T02:39:26.671Z,9.58
2022-09-25T02:42:10.313Z,9.34
2022-09-25T02:44:49.648Z,9.41
2022-09-25T02:47:33.076Z,9.48
2022-09-25T02:50:10.109Z,9.61
2022-09-25T02:52:45.656Z,9.69
2022-09-25T02:55:18.805Z,9.67
2022-09-25T02:57:52.560Z,9.63
2022-09-25T03:00:23.465Z,9.72
2022-09-25T03:02:56.328Z,9.70
2022-09-25T03:05:26.324Z,9.60
2022-09-25T03:08:12.493Z,9.51
2022-09-25T03:10:41.275Z,9.45
2022-09-25T03:13:20.834Z,9.40
2022-09-25T03:15:52.955Z,9.33
2022-09-25T03:18:22.363Z,9.23
2022-09-25T03:20:50.169Z,9.21
2022-09-25T03:23:17.993Z,9.18
2022-09-25T03:25:49.925Z,9.03
2022-09-25T03:28:19.072Z,9.04
2022-09-25T03:30:57.105Z,9.10
2022-09-25T03:33:27.755Z,9.17
2022-09-25T03:36:03.549Z,9.31
2022-09-25T03:38:31.513Z,9.37
2022-09-25T03:40:59.411Z,9.37
2022-09-25T03:43:27.307Z,9.39
2022-09-25T03:45:55.214Z,9.29
2022-09-25T03:48:23.162Z,9.17
2022-09-25T03:50:53.326Z,9.02
2022-09-25T03:53:21.227Z,9.01
2022-09-25T03:55:49.064Z,9.05
2022-09-25T03:58:17.077Z,9.08
2022-09-25T04:00:46.976Z,9.13
2022-09-25T04:03:15.110Z,9.15
2022-09-25T04:05:43.487Z,9.07
2022-09-25T04:08:12.769Z,9.06
2022-09-25T04:10:40.607Z,9.00
2022-09-25T04:13:14.154Z,8.96
2022-09-25T04:15:43.247Z,8.97
2022-09-25T04:18:11.029Z,8.94
2022-09-25T04:20:39.324Z,9.04
2022-09-25T04:23:07.158Z,9.06
2022-09-25T04:25:36.588Z,9.19
2022-09-25T04:28:05.194Z,9.33
2022-09-25T04:30:32.983Z,9.49
2022-09-25T04:33:18.574Z,9.53
2022-09-25T04:35:46.336Z,9.60
2022-09-25T04:38:14.107Z,9.60
2022-09-25T04:40:43.611Z,9.52
2022-09-25T04:43:11.384Z,9.50
2022-09-25T04:45:39.336Z,9.53
2022-09-25T04:48:07.622Z,9.55
2022-09-25T04:50:35.463Z,9.43
2022-09-25T04:53:04.021Z,9.50
2022-09-25T04:55:32.228Z,9.44
2022-09-25T04:58:02.485Z,9.45
2022-09-25T05:00:32.635Z,9.52
2022-09-25T05:03:00.661Z,9.64
2022-09-25T05:05:30.497Z,9.71
2022-09-25T05:07:59.682Z,9.69
2022-09-25T05:10:30.234Z,9.78
2022-09-25T05:12:59.229Z,9.88
2022-09-25T05:15:31.660Z,9.90
2022-09-25T05:18:03.897Z,9.89
2022-09-25T05:20:31.839Z,9.88
2022-09-25T05:23:00.259Z,9.91
2022-09-25T05:25:28.124Z,10.02
2022-09-25T05:27:58.445Z,10.04
2022-09-25T05:30:29.185Z,10.07
2022-09-25T05:32:58.910Z,10.06
2022-09-25T05:35:28.715Z,10.12
2022-09-25T05:37:56.530Z,10.11
2022-09-25T05:40:25.171Z,10.13
2022-09-25T05:42:55.307Z,10.15
2022-09-25T05:45:24.234Z,10.20
2022-09-25T05:48:02.956Z,10.18
2022-09-25T05:50:32.315Z,10.24
2022-09-25T05:53:01.789Z,10.34
2022-09-25T05:55:30.418Z,10.46
2022-09-25T05:58:01.526Z,10.45
2022-09-25T06:00:29.475Z,10.55
2022-09-25T06:02:57.263Z,10.60
2022-09-25T06:05:26.482Z,10.58
2022-09-25T06:07:55.251Z,10.59
2022-09-25T06:10:23.323Z,10.63
2022-09-25T06:12:52.056Z,10.63
2022-09-25T06:15:19.832Z,10.72
2022-09-25T06:17:47.568Z,10.74
2022-09-25T06:20:16.509Z,10.79
2022-09-25T06:22:45.790Z,10.77
2022-09-25T06:25:15.727Z,10.84
2022-09-25T06:27:43.661Z,10.86
2022-09-25T06:30:12.333Z,10.91
2022-09-25T06:32:40.134Z,11.05
2022-09-25T06:35:08.361Z,11.08
2022-09-25T06:37:36.136Z,11.11
2022-09-25T06:40:06.010Z,11.18
2022-09-25T06:42:35.166Z,11.22
2022-09-25T06:45:02.939Z,11.23
2022-09-25T06:47:30.790Z,11.27
2022-09-25T06:49:58.537Z,11.31
2022-09-25T06:52:26.605Z,11.42
2022-09-25T06:54:54.370Z,11.62
2022-09-25T06:57:23.503Z,11.78
2022-09-25T06:59:51.268Z,11.85
2022-09-25T07:02:36.772Z,11.98
2022-09-25T07:05:05.239Z,12.23
2022-09-25T07:07:33.108Z,12.44
2022-09-25T07:10:01.201Z,12.50
2022-09-25T07:12:34.185Z,13.51
2022-09-25T07:15:01.992Z,13.86
2022-09-25T07:17:29.857Z,14.38
2022-09-25T07:19:57.707Z,14.49
2022-09-25T07:22:25.711Z,14.65
2022-09-25T07:24:53.594Z,14.71
2022-09-25T07:27:21.552Z,14.58
2022-09-25T07:29:50.809Z,14.59
2022-09-25T07:32:19.762Z,14.42
2022-09-25T07:34:51.010Z,14.88
2022-09-25T07:37:19.440Z,14.52
2022-09-25T07:39:47.191Z,14.71
2022-09-25T07:42:14.997Z,14.89
2022-09-25T07:44:47.484Z,14.99
2022-09-25T07:47:19.531Z,14.56
2022-09-25T07:49:47.618Z,14.45
2022-09-25T07:52:15.415Z,14.30
2022-09-25T07:54:43.812Z,13.99
2022-09-25T07:57:13.218Z,13.64
2022-09-25T07:59:41.211Z,13.69
2022-09-25T08:02:11.053Z,13.53
2022-09-25T08:04:40.270Z,13.37
2022-09-25T08:07:08.101Z,13.32
2022-09-25T08:09:35.899Z,13.21
2022-09-25T08:12:03.724Z,13.14
2022-09-25T08:14:32.871Z,13.08
2022-09-25T08:17:00.773Z,13.11
2022-09-25T08:19:28.834Z,13.19
2022-09-25T08:21:58.028Z,13.36
2022-09-25T08:24:25.760Z,13.44
2022-09-25T08:26:53.712Z,13.60
2022-09-25T08:29:21.556Z,13.39
2022-09-25T08:31:49.337Z,13.56
2022-09-25T08:34:39.497Z,13.62
2022-09-25T08:37:08.313Z,13.52
2022-09-25T08:39:36.217Z,13.28
2022-09-25T08:42:05.747Z,13.11
2022-09-25T08:44:39.003Z,13.08
2022-09-25T08:47:30.351Z,12.96
2022-09-25T08:50:04.286Z,13.18
2022-09-25T08:52:34.969Z,13.13
2022-09-25T08:55:02.859Z,13.16
2022-09-25T08:57:37.490Z,13.14
2022-09-25T09:00:09.357Z,13.10
2022-09-25T09:02:42.792Z,12.98
2022-09-25T09:05:18.392Z,13.04
2022-09-25T09:07:53.539Z,13.15
2022-09-25T09:10:29.494Z,13.11
2022-09-25T09:13:02.658Z,13.31
2022-09-25T09:15:36.768Z,13.15
2022-09-25T09:18:18.444Z,13.12
2022-09-25T09:20:52.304Z,13.07
2022-09-25T09:23:23.891Z,12.98
2022-09-25T09:26:01.188Z,12.97
2022-09-25T09:28:51.975Z,13.15
2022-09-25T09:31:25.469Z,13.40
2022-09-25T09:34:04.669Z,13.74
2022-09-25T09:36:39.285Z,13.89
2022-09-25T09:39:18.783Z,14.28
2022-09-25T09:41:58.204Z,14.51
2022-09-25T09:44:51.376Z,14.54
2022-09-25T09:47:39.396Z,14.28
2022-09-25T09:50:24.327Z,14.35
2022-09-25T09:52:59.359Z,14.20
2022-09-25T09:55:42.324Z,14.17
2022-09-25T09:58:19.740Z,14.32
2022-09-25T10:00:49.180Z,14.56
2022-09-25T10:03:23.613Z,14.70
2022-09-25T10:05:56.345Z,14.98
2022-09-25T10:08:24.287Z,15.20
2022-09-25T10:10:55.025Z,15.35
2022-09-25T10:13:25.414Z,14.99
2022-09-25T10:16:01.992Z,14.86
2022-09-25T10:18:32.920Z,14.70
2022-09-25T10:21:06.882Z,14.63
2022-09-25T10:23:40.376Z,14.57
2022-09-25T10:26:28.579Z,14.48
2022-09-25T10:28:59.268Z,14.62
2022-09-25T10:31:30.741Z,14.69
2022-09-25T10:34:02.345Z,15.08
2022-09-25T10:36:37.381Z,15.25
2022-09-25T10:39:31.411Z,15.56
2022-09-25T10:42:00.423Z,15.85
2022-09-25T10:44:34.528Z,16.36
2022-09-25T10:47:48.379Z,17.24
2022-09-25T10:50:20.119Z,16.87
2022-09-25T10:52:51.172Z,16.66
2022-09-25T10:55:29.171Z,16.54
2022-09-25T10:58:09.276Z,16.70
2022-09-25T11:00:43.763Z,16.99
2022-09-25T11:03:21.270Z,16.84
2022-09-25T11:05:53.502Z,16.86
2022-09-25T11:08:24.618Z,16.67
2022-09-25T11:10:57.148Z,16.48
2022-09-25T11:13:28.569Z,16.30
2022-09-25T11:16:01.294Z,16.19
2022-09-25T11:18:38.991Z,16.44
2022-09-25T11:21:17.897Z,16.21
2022-09-25T11:23:58.916Z,16.06
2022-09-25T11:26:32.353Z,16.36
2022-09-25T11:29:07.757Z,16.53
2022-09-25T11:31:40.476Z,16.53
2022-09-25T11:34:17.887Z,16.66
2022-09-25T11:36:54.408Z,16.68
2022-09-25T11:39:47.422Z,16.78
2022-09-25T11:42:19.720Z,16.80
2022-09-25T11:44:57.395Z,17.13
2022-09-25T11:47:29.350Z,17.00
2022-09-25T11:50:02.177Z,16.92
2022-09-25T11:52:41.119Z,16.84
2022-09-25T11:55:45.780Z,16.75
2022-09-25T11:58:38.366Z,17.13
2022-09-25T12:01:21.180Z,16.94
2022-09-25T12:04:22.324Z,16.68
2022-09-25T12:07:04.250Z,16.70
2022-09-25T12:09:56.394Z,16.96
2022-09-25T12:12:33.047Z,17.05
2022-09-25T12:15:11.139Z,16.76
2022-09-25T12:17:47.669Z,17.27
2022-09-25T12:20:24.533Z,16.80
2022-09-25T12:23:02.859Z,16.82
2022-09-25T12:25:47.899Z,16.34
2022-09-25T12:28:24.119Z,16.01
2022-09-25T12:31:05.469Z,15.93
2022-09-25T12:33:45.076Z,15.87
2022-09-25T12:36:19.394Z,15.82
2022-09-25T12:38:55.251Z,15.67
2022-09-25T12:41:31.672Z,15.25
2022-09-25T12:44:05.098Z,15.18
2022-09-25T12:46:41.337Z,15.25
2022-09-25T12:49:15.278Z,14.90
2022-09-25T12:51:48.011Z,14.84
2022-09-25T12:54:26.151Z,14.61
2022-09-25T12:56:58.006Z,14.55
2022-09-25T12:59:33.733Z,14.41
2022-09-25T13:02:05.848Z,14.43
2022-09-25T13:04:53.424Z,14.49
2022-09-25T13:07:28.946Z,14.60
2022-09-25T13:09:56.823Z,14.41
2022-09-25T13:12:35.249Z,14.24
2022-09-25T13:15:09.032Z,14.17
2022-09-25T13:17:37.510Z,14.03
2022-09-25T13:20:48.050Z,14.21
2022-09-25T13:23:17.888Z,13.70
2022-09-25T13:25:48.486Z,13.44
2022-09-25T13:28:21.426Z,13.15
2022-09-25T13:31:09.133Z,12.95
2022-09-25T13:33:49.427Z,12.75
2022-09-25T13:36:42.668Z,12.67
2022-09-25T13:39:39.482Z,12.52
2022-09-25T13:42:15.804Z,12.43
2022-09-25T13:45:06.501Z,12.34
2022-09-25T13:48:03.008Z,12.24
2022-09-25T13:55:13.566Z,12.24
2022-09-25T13:58:03.503Z,12.30
2022-09-25T14:00:55.418Z,12.45
2022-09-25T14:03:37.867Z,12.49
2022-09-25T14:06:10.659Z,12.55
2022-09-25T14:08:42.602Z,12.60
2022-09-25T14:11:14.775Z,12.68
2022-09-25T14:13:45.749Z,12.51
2022-09-25T14:16:25.925Z,12.46
2022-09-25T14:18:55.414Z,12.58
2022-09-25T14:21:33.631Z,12.59
2022-09-25T14:24:15.288Z,12.74
2022-09-25T14:26:51.349Z,12.71
2022-09-25T14:29:23.608Z,12.89
2022-09-25T14:32:05.518Z,13.13
2022-09-25T14:34:54.239Z,13.09
2022-09-25T14:37:37.280Z,13.09
2022-09-25T14:40:14.137Z,13.13
2022-09-25T14:43:05.782Z,13.11
2022-09-25T14:46:00.124Z,13.16
2022-09-25T14:48:37.033Z,13.09
2022-09-25T14:51:07.674Z,13.15
2022-09-25T14:53:39.981Z,13.07
2022-09-25T14:56:12.008Z,13.00
2022-09-25T14:58:45.640Z,13.01
2022-09-25T15:01:22.095Z,13.10
2022-09-25T15:03:51.195Z,12.97
2022-09-25T15:06:31.569Z,13.05
2022-09-25T15:09:01.901Z,13.20
2022-09-25T15:11:41.614Z,13.41
2022-09-25T15:14:19.407Z,13.55
2022-09-25T15:17:07.546Z,13.63
2022-09-25T15:19:40.039Z,13.65
2022-09-25T15:22:13.956Z,13.68
2022-09-25T15:24:49.042Z,13.65
2022-09-25T15:27:18.598Z,13.60
2022-09-25T15:29:49.410Z,13.54
2022-09-25T15:32:19.758Z,13.56
2022-09-25T15:34:47.731Z,13.51
2022-09-25T15:37:26.352Z,13.51
2022-09-25T15:39:54.979Z,13.52
2022-09-25T15:42:23.350Z,13.60
2022-09-25T15:44:54.173Z,13.75
2022-09-25T15:47:53.385Z,13.83
2022-09-25T15:50:25.143Z,13.99
2022-09-25T15:52:56.033Z,13.95
2022-09-25T15:55:24.827Z,13.88
2022-09-25T15:57:55.988Z,13.91
2022-09-25T16:00:44.631Z,13.80
2022-09-25T16:03:36.446Z,13.74
2022-09-25T16:06:04.631Z,13.79
2022-09-25T16:08:34.646Z,13.73
2022-09-25T16:11:18.182Z,13.73
2022-09-25T16:13:49.175Z,13.72
2022-09-25T16:16:26.412Z,13.65
2022-09-25T16:18:55.955Z,13.63
2022-09-25T16:21:28.805Z,13.64
2022-09-25T16:23:59.700Z,13.54
2022-09-25T16:26:33.369Z,13.54
2022-09-25T16:29:07.334Z,13.42
2022-09-25T16:31:37.162Z,13.36
2022-09-25T16:34:06.690Z,13.29
2022-09-25T16:36:40.918Z,13.18
2022-09-25T16:39:26.724Z,13.20
2022-09-25T16:41:55.407Z,13.17
2022-09-25T16:44:37.400Z,13.09
2022-09-25T16:47:14.246Z,13.08
2022-09-25T16:49:43.505Z,12.97
2022-09-25T16:52:21.566Z,12.88
2022-09-25T16:54:54.440Z,12.82
2022-09-25T16:57:23.602Z,12.75
2022-09-25T16:59:52.992Z,12.72
2022-09-25T17:02:33.155Z,12.68
2022-09-25T17:05:03.326Z,12.60
2022-09-25T17:07:31.127Z,12.58
2022-09-25T17:10:00.969Z,12.50
2022-09-25T17:12:31.045Z,12.53
2022-09-25T17:14:59.467Z,12.54
2022-09-25T17:17:29.720Z,12.51
2022-09-25T17:19:57.764Z,12.50
2022-09-25T17:22:30.060Z,12.47
2022-09-25T17:25:01.913Z,12.44
2022-09-25T17:27:29.819Z,12.47
2022-09-25T17:29:57.849Z,12.41
2022-09-25T17:32:26.260Z,12.37
2022-09-25T17:34:58.220Z,12.36
2022-09-25T17:37:26.184Z,12.33
2022-09-25T17:39:54.070Z,12.33
2022-09-25T17:42:22.315Z,12.40
2022-09-25T17:44:50.269Z,12.38
2022-09-25T17:47:18.136Z,12.36
2022-09-25T17:49:48.496Z,12.34
2022-09-25T17:52:21.916Z,12.30
2022-09-25T17:54:54.349Z,12.29
2022-09-25T17:57:22.292Z,12.30
2022-09-25T17:59:50.244Z,12.23
2022-09-25T18:02:18.144Z,12.17
2022-09-25T18:04:46.031Z,12.06
2022-09-25T18:07:15.253Z,11.97
2022-09-25T18:09:44.495Z,12.01
2022-09-25T18:12:12.467Z,11.97
2022-09-25T18:14:40.260Z,11.93
2022-09-25T18:17:08.095Z,11.96
2022-09-25T18:19:54.403Z,11.92
2022-09-25T18:22:28.154Z,11.90
2022-09-25T18:25:06.910Z,11.91
2022-09-25T18:27:35.486Z,11.84
2022-09-25T18:30:03.390Z,11.84
2022-09-25T18:32:31.356Z,11.87
2022-09-25T18:34:59.456Z,11.79
2022-09-25T18:37:30.312Z,11.85
2022-09-25T18:40:00.385Z,11.76
2022-09-25T18:42:28.360Z,11.86
2022-09-25T18:44:56.479Z,11.86
2022-09-25T18:47:24.377Z,11.86
2022-09-25T18:49:52.641Z,11.85
2022-09-25T18:52:20.586Z,11.85
2022-09-25T18:54:48.854Z,11.86
2022-09-25T18:57:18.253Z,11.81
2022-09-25T18:59:46.145Z,11.84
2022-09-25T19:02:24.679Z,11.86
2022-09-25T19:04:54.842Z,11.89
2022-09-25T19:07:32.056Z,11.92
2022-09-25T19:10:05.909Z,11.97
2022-09-25T19:12:35.839Z,12.01
2022-09-25T19:15:04.649Z,12.07
2022-09-25T19:17:36.283Z,11.97
2022-09-25T19:20:04.677Z,12.00
2022-09-25T19:22:32.912Z,12.04
2022-09-25T19:25:01.088Z,12.00
2022-09-25T19:27:30.945Z,11.90
2022-09-25T19:30:00.281Z,11.92
2022-09-25T19:32:30.933Z,11.78
2022-09-25T19:34:59.654Z,11.84
2022-09-25T19:37:29.738Z,11.86
2022-09-25T19:40:15.093Z,11.82
2022-09-25T19:42:42.966Z,11.85
2022-09-25T19:45:15.409Z,11.82
2022-09-25T19:47:43.800Z,11.82
2022-09-25T19:50:12.716Z,11.79
2022-09-25T19:52:56.230Z,11.83
2022-09-25T19:55:59.794Z,11.77
2022-09-25T19:58:35.283Z,11.67
2022-09-25T20:01:09.378Z,11.74
2022-09-25T20:03:37.205Z,11.74
2022-09-25T20:06:05.678Z,11.69
2022-09-25T20:08:34.050Z,11.58
2022-09-25T20:11:02.276Z,11.47
2022-09-25T20:13:30.219Z,11.40
2022-09-25T20:16:09.920Z,11.32
2022-09-25T20:18:38.055Z,11.30
2022-09-25T20:21:07.561Z,11.47
2022-09-25T20:23:36.392Z,11.43
2022-09-25T20:26:12.081Z,11.30
2022-09-25T20:28:41.562Z,11.36
2022-09-25T20:31:12.521Z,11.31
2022-09-25T20:33:42.240Z,11.47
2022-09-25T20:36:12.984Z,11.43
2022-09-25T20:38:40.951Z,11.38
2022-09-25T20:41:12.173Z,11.33
2022-09-25T20:43:40.649Z,11.30
2022-09-25T20:46:12.459Z,11.23
2022-09-25T20:48:41.995Z,11.17
2022-09-25T20:51:11.989Z,11.26
2022-09-25T20:53:40.668Z,11.22
2022-09-25T20:56:09.831Z,11.12
2022-09-25T20:58:39.002Z,11.11
2022-09-25T21:01:08.874Z,11.23
2022-09-25T21:03:40.397Z,11.20
2022-09-25T21:06:11.040Z,11.25
2022-09-25T21:08:38.920Z,11.23
2022-09-25T21:11:07.966Z,11.13
2022-09-25T21:13:37.056Z,11.20
2022-09-25T21:16:05.487Z,11.17
2022-09-25T21:18:35.766Z,11.05
2022-09-25T21:21:07.814Z,11.04
2022-09-25T21:23:36.104Z,11.55
2022-09-25T21:26:05.006Z,12.20
2022-09-25T21:28:33.294Z,12.71
2022-09-25T21:31:05.457Z,13.03
2022-09-25T21:33:33.565Z,12.23
2022-09-25T21:36:01.914Z,11.94
2022-09-25T21:38:31.566Z,11.64
2022-09-25T21:41:01.592Z,11.57
2022-09-25T21:43:31.159Z,11.47
2022-09-25T21:46:00.339Z,11.51
2022-09-25T21:48:29.450Z,11.40
2022-09-25T21:50:59.254Z,11.27
2022-09-25T21:53:27.887Z,11.31
2022-09-25T21:56:02.767Z,11.28
2022-09-25T21:58:30.829Z,11.36
2022-09-25T22:01:09.025Z,11.36
2022-09-25T22:03:38.930Z,11.26
2022-09-25T22:06:09.869Z,11.21
2022-09-25T22:08:40.406Z,11.30
2022-09-25T22:11:10.533Z,11.34
2022-09-25T22:13:40.764Z,11.38
2022-09-25T22:16:10.389Z,11.29
2022-09-25T22:18:43.534Z,11.19
2022-09-25T22:21:12.141Z,11.18
2022-09-25T22:23:40.230Z,11.10
2022-09-25T22:26:10.088Z,11.22
2022-09-25T22:28:38.796Z,11.08
2022-09-25T22:31:08.542Z,11.08
2022-09-25T22:33:36.737Z,11.10
2022-09-25T22:36:07.649Z,11.15
2022-09-25T22:38:36.052Z,10.99
2022-09-25T22:41:04.653Z,11.02
2022-09-25T22:43:34.074Z,10.91
2022-09-25T22:46:02.360Z,10.97
2022-09-25T22:48:30.605Z,10.97
2022-09-25T22:51:00.502Z,11.06
2022-09-25T22:53:30.976Z,11.14
2022-09-25T22:56:08.623Z,11.08
2022-09-25T22:58:38.074Z,11.09
2022-09-25T23:01:07.293Z,11.11
2022-09-25T23:03:35.361Z,11.11
2022-09-25T23:06:04.328Z,11.12
2022-09-25T23:08:32.273Z,11.18
2022-09-25T23:11:07.696Z,11.15
2022-09-25T23:13:37.722Z,11.07
2022-09-25T23:16:07.324Z,11.11
2022-09-25T23:18:36.230Z,10.96
2022-09-25T23:21:04.251Z,10.99
2022-09-25T23:23:32.470Z,11.04
2022-09-25T23:26:03.402Z,11.02
2022-09-25T23:28:33.406Z,10.95
2022-09-25T23:31:10.520Z,11.06
2022-09-25T23:33:39.593Z,11.11
2022-09-25T23:36:09.288Z,11.06
2022-09-25T23:38:37.795Z,11.21
2022-09-25T23:41:15.271Z,11.20
2022-09-25T23:43:43.391Z,11.23
2022-09-25T23:46:13.467Z,11.17
2022-09-25T23:48:41.389Z,11.18
2022-09-25T23:51:09.618Z,11.17
2022-09-25T23:53:37.631Z,11.07
2022-09-25T23:56:09.190Z,11.15
2022-09-25T23:58:37.203Z,11.23
